sensor_id;sensor_type;location;lat;lon;timestamp;P1;durP1;ratioP1;P2;durP2;ratioP2
2053;SDS011;1032;52.542;13.440;2022-07-18T00:01:39;6.97;;;3.80;;
2053;SDS011;1032;52.542;13.440;2022-07-18T00:04:07;6.77;;;3.80;;
2053;SDS011;1032;52.542;13.440;2022-07-18T00:06:34;7.70;;;4.20;;
2053;SDS011;1032;52.542;13.440;2022-07-18T00:09:01;11.13;;;4.50;;
2053;SDS011;1032;52.542;13.440;2022-07-18T00:11:28;5.00;;;3.53;;
2053;SDS011;1032;52.542;13.440;2022-07-18T00:13:54;6.60;;;3.73;;
2053;SDS011;1032;52.542;13.440;2022-07-18T00:16:21;6.33;;;4.70;;
2053;SDS011;1032;52.542;13.440;2022-07-18T00:18:48;5.30;;;4.37;;
2053;SDS011;1032;52.542;13.440;2022-07-18T00:21:17;6.87;;;4.20;;
2053;SDS011;1032;52.542;13.440;2022-07-18T00:23:44;4.77;;;3.20;;
2053;SDS011;1032;52.542;13.440;2022-07-18T00:26:10;7.03;;;3.37;;
2053;SDS011;1032;52.542;13.440;2022-07-18T00:28:37;7.00;;;3.20;;
2053;SDS011;1032;52.542;13.440;2022-07-18T00:31:04;5.77;;;3.93;;
2053;SDS011;1032;52.542;13.440;2022-07-18T00:33:30;5.33;;;3.60;;
2053;SDS011;1032;52.542;13.440;2022-07-18T00:35:57;5.40;;;3.00;;
2053;SDS011;1032;52.542;13.440;2022-07-18T00:38:25;7.53;;;3.83;;
2053;SDS011;1032;52.542;13.440;2022-07-18T00:40:51;4.90;;;2.80;;
2053;SDS011;1032;52.542;13.440;2022-07-18T00:43:18;9.50;;;2.77;;
2053;SDS011;1032;52.542;13.440;2022-07-18T00:45:45;6.87;;;2.63;;
2053;SDS011;1032;52.542;13.440;2022-07-18T00:48:13;6.23;;;2.73;;
2053;SDS011;1032;52.542;13.440;2022-07-18T00:50:39;4.63;;;2.80;;
2053;SDS011;1032;52.542;13.440;2022-07-18T00:53:07;5.60;;;2.80;;
2053;SDS011;1032;52.542;13.440;2022-07-18T00:55:37;4.70;;;2.30;;
2053;SDS011;1032;52.542;13.440;2022-07-18T00:58:05;6.17;;;2.77;;
2053;SDS011;1032;52.542;13.440;2022-07-18T01:00:33;4.30;;;2.43;;
2053;SDS011;1032;52.542;13.440;2022-07-18T01:03:18;5.10;;;2.33;;
2053;SDS011;1032;52.542;13.440;2022-07-18T01:05:45;6.00;;;2.40;;
2053;SDS011;1032;52.542;13.440;2022-07-18T01:08:12;4.60;;;2.50;;
2053;SDS011;1032;52.542;13.440;2022-07-18T01:10:40;4.80;;;2.47;;
2053;SDS011;1032;52.542;13.440;2022-07-18T01:13:07;5.30;;;2.50;;
2053;SDS011;1032;52.542;13.440;2022-07-18T01:15:34;5.60;;;2.80;;
2053;SDS011;1032;52.542;13.440;2022-07-18T01:18:01;9.63;;;2.90;;
2053;SDS011;1032;52.542;13.440;2022-07-18T01:20:30;4.93;;;2.80;;
2053;SDS011;1032;52.542;13.440;2022-07-18T01:22:57;4.80;;;2.77;;
2053;SDS011;1032;52.542;13.440;2022-07-18T01:25:24;14.63;;;2.70;;
2053;SDS011;1032;52.542;13.440;2022-07-18T01:27:51;6.03;;;2.87;;
2053;SDS011;1032;52.542;13.440;2022-07-18T01:30:19;4.40;;;2.80;;
2053;SDS011;1032;52.542;13.440;2022-07-18T01:32:45;6.93;;;3.27;;
2053;SDS011;1032;52.542;13.440;2022-07-18T01:35:12;6.80;;;3.07;;
2053;SDS011;1032;52.542;13.440;2022-07-18T01:37:40;5.40;;;2.60;;
2053;SDS011;1032;52.542;13.440;2022-07-18T01:40:07;7.30;;;2.47;;
2053;SDS011;1032;52.542;13.440;2022-07-18T01:42:35;5.00;;;2.73;;
2053;SDS011;1032;52.542;13.440;2022-07-18T01:45:01;5.87;;;3.10;;
2053;SDS011;1032;52.542;13.440;2022-07-18T01:47:28;4.60;;;2.87;;
2053;SDS011;1032;52.542;13.440;2022-07-18T01:49:55;5.87;;;2.87;;
2053;SDS011;1032;52.542;13.440;2022-07-18T01:52:21;7.20;;;3.10;;
2053;SDS011;1032;52.542;13.440;2022-07-18T01:54:49;5.03;;;3.07;;
2053;SDS011;1032;52.542;13.440;2022-07-18T01:57:16;5.93;;;3.10;;
2053;SDS011;1032;52.542;13.440;2022-07-18T01:59:42;5.33;;;3.70;;
2053;SDS011;1032;52.542;13.440;2022-07-18T02:02:09;3.57;;;2.23;;
2053;SDS011;1032;52.542;13.440;2022-07-18T02:04:36;5.63;;;2.97;;
2053;SDS011;1032;52.542;13.440;2022-07-18T02:07:20;5.97;;;2.83;;
2053;SDS011;1032;52.542;13.440;2022-07-18T02:09:47;5.80;;;3.03;;
2053;SDS011;1032;52.542;13.440;2022-07-18T02:12:15;5.43;;;2.30;;
2053;SDS011;1032;52.542;13.440;2022-07-18T02:14:42;6.97;;;2.57;;
2053;SDS011;1032;52.542;13.440;2022-07-18T02:17:08;7.03;;;3.10;;
2053;SDS011;1032;52.542;13.440;2022-07-18T02:19:35;6.03;;;2.97;;
2053;SDS011;1032;52.542;13.440;2022-07-18T02:22:01;6.83;;;2.67;;
2053;SDS011;1032;52.542;13.440;2022-07-18T02:24:28;5.77;;;2.63;;
2053;SDS011;1032;52.542;13.440;2022-07-18T02:26:55;6.97;;;2.97;;
2053;SDS011;1032;52.542;13.440;2022-07-18T02:29:23;5.57;;;2.17;;
2053;SDS011;1032;52.542;13.440;2022-07-18T02:31:50;5.93;;;2.50;;
2053;SDS011;1032;52.542;13.440;2022-07-18T02:34:16;4.67;;;2.70;;
2053;SDS011;1032;52.542;13.440;2022-07-18T02:36:43;7.17;;;2.63;;
2053;SDS011;1032;52.542;13.440;2022-07-18T02:39:09;6.00;;;2.43;;
2053;SDS011;1032;52.542;13.440;2022-07-18T02:41:36;6.37;;;2.93;;
2053;SDS011;1032;52.542;13.440;2022-07-18T02:44:03;3.70;;;2.00;;
2053;SDS011;1032;52.542;13.440;2022-07-18T02:46:31;6.03;;;2.80;;
2053;SDS011;1032;52.542;13.440;2022-07-18T02:48:58;8.63;;;3.03;;
2053;SDS011;1032;52.542;13.440;2022-07-18T02:51:25;5.13;;;2.77;;
2053;SDS011;1032;52.542;13.440;2022-07-18T02:53:52;5.37;;;2.90;;
2053;SDS011;1032;52.542;13.440;2022-07-18T02:56:19;5.60;;;2.60;;
2053;SDS011;1032;52.542;13.440;2022-07-18T02:58:45;5.03;;;2.70;;
2053;SDS011;1032;52.542;13.440;2022-07-18T03:01:12;8.90;;;2.90;;
2053;SDS011;1032;52.542;13.440;2022-07-18T03:03:40;6.00;;;2.83;;
2053;SDS011;1032;52.542;13.440;2022-07-18T03:06:06;5.33;;;3.40;;
2053;SDS011;1032;52.542;13.440;2022-07-18T03:08:33;7.90;;;3.33;;
2053;SDS011;1032;52.542;13.440;2022-07-18T03:10:59;6.20;;;2.80;;
2053;SDS011;1032;52.542;13.440;2022-07-18T03:13:26;8.37;;;2.60;;
2053;SDS011;1032;52.542;13.440;2022-07-18T03:15:53;5.73;;;3.07;;
2053;SDS011;1032;52.542;13.440;2022-07-18T03:18:19;6.70;;;3.00;;
2053;SDS011;1032;52.542;13.440;2022-07-18T03:20:48;5.50;;;3.10;;
2053;SDS011;1032;52.542;13.440;2022-07-18T03:23:15;6.07;;;2.97;;
2053;SDS011;1032;52.542;13.440;2022-07-18T03:25:41;8.80;;;2.90;;
2053;SDS011;1032;52.542;13.440;2022-07-18T03:28:08;6.83;;;3.23;;
2053;SDS011;1032;52.542;13.440;2022-07-18T03:30:34;10.63;;;3.13;;
2053;SDS011;1032;52.542;13.440;2022-07-18T03:33:01;6.00;;;2.90;;
2053;SDS011;1032;52.542;13.440;2022-07-18T03:35:28;4.50;;;2.60;;
2053;SDS011;1032;52.542;13.440;2022-07-18T03:37:55;8.30;;;3.83;;
2053;SDS011;1032;52.542;13.440;2022-07-18T03:40:22;4.97;;;3.33;;
2053;SDS011;1032;52.542;13.440;2022-07-18T03:42:49;14.47;;;3.87;;
2053;SDS011;1032;52.542;13.440;2022-07-18T03:45:15;6.53;;;3.67;;
2053;SDS011;1032;52.542;13.440;2022-07-18T03:47:42;11.33;;;4.10;;
2053;SDS011;1032;52.542;13.440;2022-07-18T03:50:08;6.63;;;3.10;;
2053;SDS011;1032;52.542;13.440;2022-07-18T03:52:35;4.60;;;3.10;;
2053;SDS011;1032;52.542;13.440;2022-07-18T03:55:04;6.73;;;3.13;;
2053;SDS011;1032;52.542;13.440;2022-07-18T03:57:31;7.63;;;3.47;;
2053;SDS011;1032;52.542;13.440;2022-07-18T03:59:58;7.33;;;3.03;;
2053;SDS011;1032;52.542;13.440;2022-07-18T04:02:24;7.93;;;3.17;;
2053;SDS011;1032;52.542;13.440;2022-07-18T04:04:51;7.37;;;4.10;;
2053;SDS011;1032;52.542;13.440;2022-07-18T04:07:17;12.93;;;4.30;;
2053;SDS011;1032;52.542;13.440;2022-07-18T04:09:44;13.70;;;4.67;;
2053;SDS011;1032;52.542;13.440;2022-07-18T04:12:12;8.27;;;4.00;;
2053;SDS011;1032;52.542;13.440;2022-07-18T04:14:38;8.80;;;3.43;;
2053;SDS011;1032;52.542;13.440;2022-07-18T04:17:05;12.67;;;3.70;;
2053;SDS011;1032;52.542;13.440;2022-07-18T04:19:32;7.90;;;4.30;;
2053;SDS011;1032;52.542;13.440;2022-07-18T04:21:59;12.50;;;4.50;;
2053;SDS011;1032;52.542;13.440;2022-07-18T04:24:25;13.73;;;4.20;;
2053;SDS011;1032;52.542;13.440;2022-07-18T04:26:52;16.73;;;3.57;;
2053;SDS011;1032;52.542;13.440;2022-07-18T04:29:20;8.50;;;3.87;;
2053;SDS011;1032;52.542;13.440;2022-07-18T04:31:47;16.10;;;4.80;;
2053;SDS011;1032;52.542;13.440;2022-07-18T04:34:13;13.60;;;4.20;;
2053;SDS011;1032;52.542;13.440;2022-07-18T04:36:40;11.60;;;3.90;;
2053;SDS011;1032;52.542;13.440;2022-07-18T04:39:07;6.00;;;3.70;;
2053;SDS011;1032;52.542;13.440;2022-07-18T04:41:34;6.20;;;3.50;;
2053;SDS011;1032;52.542;13.440;2022-07-18T04:44:00;6.53;;;3.17;;
2053;SDS011;1032;52.542;13.440;2022-07-18T04:46:28;7.80;;;4.00;;
2053;SDS011;1032;52.542;13.440;2022-07-18T04:48:55;9.60;;;4.10;;
2053;SDS011;1032;52.542;13.440;2022-07-18T04:51:21;10.20;;;3.87;;
2053;SDS011;1032;52.542;13.440;2022-07-18T04:53:48;10.57;;;3.83;;
2053;SDS011;1032;52.542;13.440;2022-07-18T04:56:15;11.13;;;3.37;;
2053;SDS011;1032;52.542;13.440;2022-07-18T04:58:41;8.00;;;4.30;;
2053;SDS011;1032;52.542;13.440;2022-07-18T05:01:08;9.10;;;3.80;;
2053;SDS011;1032;52.542;13.440;2022-07-18T05:03:36;10.67;;;3.70;;
2053;SDS011;1032;52.542;13.440;2022-07-18T05:06:03;10.17;;;6.70;;
2053;SDS011;1032;52.542;13.440;2022-07-18T05:08:29;12.27;;;3.97;;
2053;SDS011;1032;52.542;13.440;2022-07-18T05:10:56;7.00;;;4.10;;
2053;SDS011;1032;52.542;13.440;2022-07-18T05:13:22;7.40;;;3.60;;
2053;SDS011;1032;52.542;13.440;2022-07-18T05:15:49;10.47;;;4.10;;
2053;SDS011;1032;52.542;13.440;2022-07-18T05:18:16;4.63;;;3.10;;
2053;SDS011;1032;52.542;13.440;2022-07-18T05:20:44;5.43;;;3.73;;
2053;SDS011;1032;52.542;13.440;2022-07-18T05:23:13;10.40;;;3.80;;
2053;SDS011;1032;52.542;13.440;2022-07-18T05:25:40;5.83;;;2.80;;
2053;SDS011;1032;52.542;13.440;2022-07-18T05:28:07;6.40;;;3.67;;
2053;SDS011;1032;52.542;13.440;2022-07-18T05:30:34;11.43;;;4.37;;
2053;SDS011;1032;52.542;13.440;2022-07-18T05:33:01;6.20;;;3.33;;
2053;SDS011;1032;52.542;13.440;2022-07-18T05:35:27;7.67;;;3.93;;
2053;SDS011;1032;52.542;13.440;2022-07-18T05:37:55;3.80;;;2.53;;
2053;SDS011;1032;52.542;13.440;2022-07-18T05:40:22;10.27;;;2.83;;
2053;SDS011;1032;52.542;13.440;2022-07-18T05:42:49;9.00;;;3.57;;
2053;SDS011;1032;52.542;13.440;2022-07-18T05:45:15;5.33;;;3.50;;
2053;SDS011;1032;52.542;13.440;2022-07-18T05:47:42;7.47;;;3.33;;
2053;SDS011;1032;52.542;13.440;2022-07-18T05:50:09;11.40;;;4.20;;
2053;SDS011;1032;52.542;13.440;2022-07-18T05:52:36;5.03;;;3.27;;
2053;SDS011;1032;52.542;13.440;2022-07-18T05:55:05;4.30;;;2.57;;
2053;SDS011;1032;52.542;13.440;2022-07-18T05:57:32;8.20;;;3.30;;
2053;SDS011;1032;52.542;13.440;2022-07-18T05:59:59;5.93;;;3.30;;
2053;SDS011;1032;52.542;13.440;2022-07-18T06:02:26;5.63;;;3.30;;
2053;SDS011;1032;52.542;13.440;2022-07-18T06:04:52;6.67;;;3.00;;
2053;SDS011;1032;52.542;13.440;2022-07-18T06:07:19;7.40;;;3.47;;
2053;SDS011;1032;52.542;13.440;2022-07-18T06:09:46;7.23;;;3.13;;
2053;SDS011;1032;52.542;13.440;2022-07-18T06:12:14;8.73;;;3.63;;
2053;SDS011;1032;52.542;13.440;2022-07-18T06:14:41;5.93;;;3.20;;
2053;SDS011;1032;52.542;13.440;2022-07-18T06:17:08;5.43;;;2.50;;
2053;SDS011;1032;52.542;13.440;2022-07-18T06:19:34;7.70;;;3.00;;
2053;SDS011;1032;52.542;13.440;2022-07-18T06:22:01;10.60;;;3.33;;
2053;SDS011;1032;52.542;13.440;2022-07-18T06:24:28;7.50;;;2.50;;
2053;SDS011;1032;52.542;13.440;2022-07-18T06:26:54;6.33;;;2.57;;
2053;SDS011;1032;52.542;13.440;2022-07-18T06:29:22;7.23;;;2.60;;
2053;SDS011;1032;52.542;13.440;2022-07-18T06:31:49;10.40;;;3.80;;
2053;SDS011;1032;52.542;13.440;2022-07-18T06:34:16;5.90;;;2.77;;
2053;SDS011;1032;52.542;13.440;2022-07-18T06:36:42;5.53;;;2.70;;
2053;SDS011;1032;52.542;13.440;2022-07-18T06:39:09;8.30;;;3.20;;
2053;SDS011;1032;52.542;13.440;2022-07-18T06:41:36;5.00;;;3.40;;
2053;SDS011;1032;52.542;13.440;2022-07-18T06:44:11;17.03;;;5.07;;
2053;SDS011;1032;52.542;13.440;2022-07-18T06:46:39;5.37;;;2.53;;
2053;SDS011;1032;52.542;13.440;2022-07-18T06:49:06;6.23;;;2.57;;
2053;SDS011;1032;52.542;13.440;2022-07-18T06:51:33;3.10;;;2.10;;
2053;SDS011;1032;52.542;13.440;2022-07-18T06:54:00;4.97;;;3.03;;
2053;SDS011;1032;52.542;13.440;2022-07-18T06:56:26;4.63;;;3.00;;
2053;SDS011;1032;52.542;13.440;2022-07-18T06:58:53;6.87;;;2.77;;
2053;SDS011;1032;52.542;13.440;2022-07-18T07:01:20;7.27;;;2.93;;
2053;SDS011;1032;52.542;13.440;2022-07-18T07:03:48;8.47;;;2.70;;
2053;SDS011;1032;52.542;13.440;2022-07-18T07:06:15;8.43;;;2.80;;
2053;SDS011;1032;52.542;13.440;2022-07-18T07:08:42;5.33;;;2.40;;
2053;SDS011;1032;52.542;13.440;2022-07-18T07:11:09;3.03;;;1.93;;
2053;SDS011;1032;52.542;13.440;2022-07-18T07:13:35;6.40;;;3.33;;
2053;SDS011;1032;52.542;13.440;2022-07-18T07:16:02;5.73;;;2.43;;
2053;SDS011;1032;52.542;13.440;2022-07-18T07:18:29;8.13;;;2.87;;
2053;SDS011;1032;52.542;13.440;2022-07-18T07:20:58;6.50;;;2.50;;
2053;SDS011;1032;52.542;13.440;2022-07-18T07:23:25;4.00;;;2.10;;
2053;SDS011;1032;52.542;13.440;2022-07-18T07:25:51;5.40;;;2.50;;
2053;SDS011;1032;52.542;13.440;2022-07-18T07:28:19;7.70;;;2.20;;
2053;SDS011;1032;52.542;13.440;2022-07-18T07:30:46;5.30;;;1.93;;
2053;SDS011;1032;52.542;13.440;2022-07-18T07:33:13;4.57;;;2.10;;
2053;SDS011;1032;52.542;13.440;2022-07-18T07:35:39;5.43;;;2.17;;
2053;SDS011;1032;52.542;13.440;2022-07-18T07:38:08;2.90;;;2.13;;
2053;SDS011;1032;52.542;13.440;2022-07-18T07:40:35;5.03;;;3.90;;
2053;SDS011;1032;52.542;13.440;2022-07-18T07:43:05;4.87;;;2.00;;
2053;SDS011;1032;52.542;13.440;2022-07-18T07:45:34;4.80;;;2.17;;
2053;SDS011;1032;52.542;13.440;2022-07-18T07:48:01;5.43;;;2.23;;
2053;SDS011;1032;52.542;13.440;2022-07-18T07:50:28;7.57;;;2.27;;
2053;SDS011;1032;52.542;13.440;2022-07-18T07:52:55;4.60;;;2.13;;
2053;SDS011;1032;52.542;13.440;2022-07-18T07:55:23;6.17;;;3.23;;
2053;SDS011;1032;52.542;13.440;2022-07-18T07:57:51;4.90;;;1.77;;
2053;SDS011;1032;52.542;13.440;2022-07-18T08:00:17;3.50;;;2.43;;
2053;SDS011;1032;52.542;13.440;2022-07-18T08:02:54;6.13;;;2.10;;
2053;SDS011;1032;52.542;13.440;2022-07-18T08:05:22;5.00;;;2.10;;
2053;SDS011;1032;52.542;13.440;2022-07-18T08:07:50;4.77;;;2.10;;
2053;SDS011;1032;52.542;13.440;2022-07-18T08:10:17;4.00;;;1.90;;
2053;SDS011;1032;52.542;13.440;2022-07-18T08:12:46;7.90;;;2.20;;
2053;SDS011;1032;52.542;13.440;2022-07-18T08:15:12;7.33;;;2.43;;
2053;SDS011;1032;52.542;13.440;2022-07-18T08:17:39;3.47;;;2.13;;
2053;SDS011;1032;52.542;13.440;2022-07-18T08:20:06;5.17;;;2.87;;
2053;SDS011;1032;52.542;13.440;2022-07-18T08:22:34;4.53;;;2.50;;
2053;SDS011;1032;52.542;13.440;2022-07-18T08:25:01;4.23;;;2.30;;
2053;SDS011;1032;52.542;13.440;2022-07-18T08:27:28;7.37;;;3.30;;
2053;SDS011;1032;52.542;13.440;2022-07-18T08:29:56;5.53;;;2.50;;
2053;SDS011;1032;52.542;13.440;2022-07-18T08:32:23;5.60;;;2.53;;
2053;SDS011;1032;52.542;13.440;2022-07-18T08:34:49;4.43;;;2.33;;
2053;SDS011;1032;52.542;13.440;2022-07-18T08:37:17;6.00;;;2.90;;
2053;SDS011;1032;52.542;13.440;2022-07-18T08:39:44;9.50;;;3.40;;
2053;SDS011;1032;52.542;13.440;2022-07-18T08:42:11;4.07;;;3.10;;
2053;SDS011;1032;52.542;13.440;2022-07-18T08:44:39;4.87;;;3.07;;
2053;SDS011;1032;52.542;13.440;2022-07-18T08:47:07;5.67;;;3.57;;
2053;SDS011;1032;52.542;13.440;2022-07-18T08:49:35;5.60;;;2.93;;
2053;SDS011;1032;52.542;13.440;2022-07-18T08:52:02;3.90;;;3.13;;
2053;SDS011;1032;52.542;13.440;2022-07-18T08:54:28;6.37;;;4.13;;
2053;SDS011;1032;52.542;13.440;2022-07-18T08:56:56;4.97;;;3.13;;
2053;SDS011;1032;52.542;13.440;2022-07-18T08:59:22;7.20;;;4.50;;
2053;SDS011;1032;52.542;13.440;2022-07-18T09:01:49;9.57;;;4.10;;
2053;SDS011;1032;52.542;13.440;2022-07-18T09:07:09;5.27;;;4.10;;
2053;SDS011;1032;52.542;13.440;2022-07-18T09:09:51;11.20;;;4.87;;
2053;SDS011;1032;52.542;13.440;2022-07-18T09:12:18;7.13;;;4.50;;
2053;SDS011;1032;52.542;13.440;2022-07-18T09:14:45;6.40;;;4.70;;
2053;SDS011;1032;52.542;13.440;2022-07-18T09:17:13;5.60;;;4.20;;
2053;SDS011;1032;52.542;13.440;2022-07-18T09:19:41;5.83;;;3.43;;
2053;SDS011;1032;52.542;13.440;2022-07-18T09:22:14;8.13;;;3.90;;
2053;SDS011;1032;52.542;13.440;2022-07-18T09:24:49;7.70;;;4.60;;
2053;SDS011;1032;52.542;13.440;2022-07-18T09:27:24;4.87;;;3.10;;
2053;SDS011;1032;52.542;13.440;2022-07-18T09:30:19;5.70;;;3.47;;
2053;SDS011;1032;52.542;13.440;2022-07-18T09:32:50;7.47;;;3.00;;
2053;SDS011;1032;52.542;13.440;2022-07-18T09:35:18;5.33;;;2.83;;
2053;SDS011;1032;52.542;13.440;2022-07-18T09:37:53;6.97;;;3.10;;
2053;SDS011;1032;52.542;13.440;2022-07-18T09:40:25;5.77;;;2.73;;
2053;SDS011;1032;52.542;13.440;2022-07-18T09:42:53;7.23;;;3.13;;
2053;SDS011;1032;52.542;13.440;2022-07-18T09:45:21;4.40;;;2.80;;
2053;SDS011;1032;52.542;13.440;2022-07-18T09:47:49;7.27;;;3.00;;
2053;SDS011;1032;52.542;13.440;2022-07-18T09:50:21;7.23;;;3.03;;
2053;SDS011;1032;52.542;13.440;2022-07-18T09:53:01;8.13;;;3.40;;
2053;SDS011;1032;52.542;13.440;2022-07-18T09:55:30;5.07;;;2.87;;
2053;SDS011;1032;52.542;13.440;2022-07-18T09:57:58;8.17;;;3.47;;
2053;SDS011;1032;52.542;13.440;2022-07-18T10:00:27;4.53;;;3.23;;
2053;SDS011;1032;52.542;13.440;2022-07-18T10:02:56;5.60;;;3.27;;
2053;SDS011;1032;52.542;13.440;2022-07-18T10:05:25;5.73;;;3.40;;
2053;SDS011;1032;52.542;13.440;2022-07-18T10:07:52;7.50;;;3.27;;
2053;SDS011;1032;52.542;13.440;2022-07-18T10:10:21;6.73;;;3.50;;
2053;SDS011;1032;52.542;13.440;2022-07-18T10:12:50;6.93;;;4.33;;
2053;SDS011;1032;52.542;13.440;2022-07-18T10:15:20;5.57;;;3.50;;
2053;SDS011;1032;52.542;13.440;2022-07-18T10:17:47;8.10;;;3.47;;
2053;SDS011;1032;52.542;13.440;2022-07-18T10:20:14;5.20;;;3.70;;
2053;SDS011;1032;52.542;13.440;2022-07-18T10:22:41;4.97;;;2.80;;
2053;SDS011;1032;52.542;13.440;2022-07-18T10:25:09;6.27;;;2.93;;
2053;SDS011;1032;52.542;13.440;2022-07-18T10:27:48;7.17;;;4.03;;
2053;SDS011;1032;52.542;13.440;2022-07-18T10:30:16;7.87;;;3.50;;
2053;SDS011;1032;52.542;13.440;2022-07-18T10:32:44;6.63;;;3.83;;
2053;SDS011;1032;52.542;13.440;2022-07-18T10:35:11;7.10;;;3.70;;
2053;SDS011;1032;52.542;13.440;2022-07-18T10:37:41;7.37;;;4.23;;
2053;SDS011;1032;52.542;13.440;2022-07-18T10:45:57;6.17;;;3.83;;
2053;SDS011;1032;52.542;13.440;2022-07-18T10:51:29;4.70;;;3.40;;
2053;SDS011;1032;52.542;13.440;2022-07-18T10:53:57;8.53;;;3.47;;
2053;SDS011;1032;52.542;13.440;2022-07-18T10:59:37;6.47;;;4.03;;
2053;SDS011;1032;52.542;13.440;2022-07-18T11:02:06;4.23;;;3.30;;
2053;SDS011;1032;52.542;13.440;2022-07-18T11:04:35;4.60;;;2.90;;
2053;SDS011;1032;52.542;13.440;2022-07-18T11:07:07;5.73;;;3.53;;
2053;SDS011;1032;52.542;13.440;2022-07-18T11:09:41;5.57;;;3.37;;
2053;SDS011;1032;52.542;13.440;2022-07-18T11:15:07;5.53;;;3.40;;
2053;SDS011;1032;52.542;13.440;2022-07-18T11:20:26;5.40;;;4.03;;
2053;SDS011;1032;52.542;13.440;2022-07-18T11:23:01;6.93;;;3.60;;
2053;SDS011;1032;52.542;13.440;2022-07-18T11:25:29;5.13;;;3.67;;
2053;SDS011;1032;52.542;13.440;2022-07-18T11:27:56;5.00;;;3.00;;
2053;SDS011;1032;52.542;13.440;2022-07-18T11:30:25;6.43;;;3.70;;
2053;SDS011;1032;52.542;13.440;2022-07-18T11:32:51;7.73;;;3.80;;
2053;SDS011;1032;52.542;13.440;2022-07-18T11:35:23;5.83;;;3.70;;
2053;SDS011;1032;52.542;13.440;2022-07-18T11:37:51;4.20;;;3.80;;
2053;SDS011;1032;52.542;13.440;2022-07-18T11:40:18;4.30;;;3.80;;
2053;SDS011;1032;52.542;13.440;2022-07-18T11:42:45;4.23;;;3.10;;
2053;SDS011;1032;52.542;13.440;2022-07-18T11:45:13;4.40;;;3.30;;
2053;SDS011;1032;52.542;13.440;2022-07-18T11:47:47;5.30;;;3.80;;
2053;SDS011;1032;52.542;13.440;2022-07-18T11:50:16;6.03;;;3.37;;
2053;SDS011;1032;52.542;13.440;2022-07-18T11:52:45;6.37;;;4.37;;
2053;SDS011;1032;52.542;13.440;2022-07-18T11:55:12;5.57;;;4.10;;
2053;SDS011;1032;52.542;13.440;2022-07-18T11:57:39;3.47;;;3.13;;
2053;SDS011;1032;52.542;13.440;2022-07-18T12:00:16;6.40;;;3.87;;
2053;SDS011;1032;52.542;13.440;2022-07-18T12:02:45;3.87;;;3.23;;
2053;SDS011;1032;52.542;13.440;2022-07-18T12:05:11;5.67;;;3.50;;
2053;SDS011;1032;52.542;13.440;2022-07-18T12:07:38;5.70;;;3.47;;
2053;SDS011;1032;52.542;13.440;2022-07-18T12:10:16;4.53;;;4.13;;
2053;SDS011;1032;52.542;13.440;2022-07-18T12:12:43;5.90;;;3.60;;
2053;SDS011;1032;52.542;13.440;2022-07-18T12:15:09;4.77;;;3.60;;
2053;SDS011;1032;52.542;13.440;2022-07-18T12:17:42;7.20;;;4.30;;
2053;SDS011;1032;52.542;13.440;2022-07-18T12:20:10;7.57;;;3.27;;
2053;SDS011;1032;52.542;13.440;2022-07-18T12:28:26;6.43;;;4.10;;
2053;SDS011;1032;52.542;13.440;2022-07-18T12:30:53;4.83;;;3.77;;
2053;SDS011;1032;52.542;13.440;2022-07-18T12:33:21;7.43;;;4.90;;
2053;SDS011;1032;52.542;13.440;2022-07-18T12:35:54;6.03;;;4.10;;
2053;SDS011;1032;52.542;13.440;2022-07-18T12:38:21;4.03;;;3.63;;
2053;SDS011;1032;52.542;13.440;2022-07-18T12:40:49;6.60;;;4.40;;
2053;SDS011;1032;52.542;13.440;2022-07-18T12:43:23;5.60;;;4.47;;
2053;SDS011;1032;52.542;13.440;2022-07-18T12:45:52;5.57;;;4.77;;
2053;SDS011;1032;52.542;13.440;2022-07-18T12:48:20;6.13;;;4.20;;
2053;SDS011;1032;52.542;13.440;2022-07-18T12:50:53;8.63;;;4.60;;
2053;SDS011;1032;52.542;13.440;2022-07-18T12:53:22;4.47;;;4.00;;
2053;SDS011;1032;52.542;13.440;2022-07-18T12:55:48;6.70;;;3.70;;
2053;SDS011;1032;52.542;13.440;2022-07-18T12:58:15;7.23;;;4.33;;
2053;SDS011;1032;52.542;13.440;2022-07-18T13:00:43;10.05;;;4.30;;
2053;SDS011;1032;52.542;13.440;2022-07-18T13:03:12;7.10;;;4.57;;
2053;SDS011;1032;52.542;13.440;2022-07-18T13:05:39;5.73;;;4.53;;
2053;SDS011;1032;52.542;13.440;2022-07-18T13:08:06;6.60;;;4.70;;
2053;SDS011;1032;52.542;13.440;2022-07-18T13:10:34;5.67;;;4.67;;
2053;SDS011;1032;52.542;13.440;2022-07-18T13:13:01;6.10;;;3.87;;
2053;SDS011;1032;52.542;13.440;2022-07-18T13:15:28;4.17;;;3.77;;
2053;SDS011;1032;52.542;13.440;2022-07-18T13:17:57;5.80;;;4.10;;
2053;SDS011;1032;52.542;13.440;2022-07-18T13:20:24;5.40;;;4.77;;
2053;SDS011;1032;52.542;13.440;2022-07-18T13:22:51;5.60;;;4.60;;
2053;SDS011;1032;52.542;13.440;2022-07-18T13:25:19;6.57;;;3.90;;
2053;SDS011;1032;52.542;13.440;2022-07-18T13:27:48;5.47;;;4.10;;
2053;SDS011;1032;52.542;13.440;2022-07-18T13:30:15;5.50;;;4.60;;
2053;SDS011;1032;52.542;13.440;2022-07-18T13:32:42;4.47;;;3.80;;
2053;SDS011;1032;52.542;13.440;2022-07-18T13:35:11;5.50;;;3.77;;
2053;SDS011;1032;52.542;13.440;2022-07-18T13:37:39;7.83;;;4.50;;
2053;SDS011;1032;52.542;13.440;2022-07-18T13:40:07;8.70;;;3.90;;
2053;SDS011;1032;52.542;13.440;2022-07-18T13:42:35;5.90;;;4.20;;
2053;SDS011;1032;52.542;13.440;2022-07-18T13:45:03;5.80;;;3.83;;
2053;SDS011;1032;52.542;13.440;2022-07-18T13:47:31;6.80;;;4.23;;
2053;SDS011;1032;52.542;13.440;2022-07-18T13:49:58;4.37;;;3.20;;
2053;SDS011;1032;52.542;13.440;2022-07-18T13:52:26;3.80;;;3.00;;
2053;SDS011;1032;52.542;13.440;2022-07-18T13:54:53;4.70;;;2.93;;
2053;SDS011;1032;52.542;13.440;2022-07-18T13:57:20;4.40;;;3.47;;
2053;SDS011;1032;52.542;13.440;2022-07-18T13:59:49;4.13;;;3.10;;
2053;SDS011;1032;52.542;13.440;2022-07-18T14:02:16;5.10;;;4.43;;
2053;SDS011;1032;52.542;13.440;2022-07-18T14:04:44;4.30;;;3.60;;
2053;SDS011;1032;52.542;13.440;2022-07-18T14:07:11;5.00;;;3.90;;
2053;SDS011;1032;52.542;13.440;2022-07-18T14:09:43;4.90;;;3.30;;
2053;SDS011;1032;52.542;13.440;2022-07-18T14:12:10;4.70;;;3.77;;
2053;SDS011;1032;52.542;13.440;2022-07-18T14:14:37;5.40;;;3.77;;
2053;SDS011;1032;52.542;13.440;2022-07-18T14:17:04;4.60;;;4.10;;
2053;SDS011;1032;52.542;13.440;2022-07-18T14:19:31;4.50;;;3.50;;
2053;SDS011;1032;52.542;13.440;2022-07-18T14:22:02;4.23;;;3.83;;
2053;SDS011;1032;52.542;13.440;2022-07-18T14:24:31;4.00;;;3.50;;
2053;SDS011;1032;52.542;13.440;2022-07-18T14:26:59;5.93;;;4.20;;
2053;SDS011;1032;52.542;13.440;2022-07-18T14:29:26;6.27;;;3.70;;
2053;SDS011;1032;52.542;13.440;2022-07-18T14:31:53;4.50;;;3.17;;
2053;SDS011;1032;52.542;13.440;2022-07-18T14:34:22;5.00;;;3.60;;
2053;SDS011;1032;52.542;13.440;2022-07-18T14:36:49;4.60;;;4.13;;
2053;SDS011;1032;52.542;13.440;2022-07-18T14:39:16;4.47;;;3.93;;
2053;SDS011;1032;52.542;13.440;2022-07-18T14:41:42;6.23;;;3.20;;
2053;SDS011;1032;52.542;13.440;2022-07-18T14:44:11;3.87;;;3.10;;
2053;SDS011;1032;52.542;13.440;2022-07-18T14:46:38;5.23;;;3.30;;
2053;SDS011;1032;52.542;13.440;2022-07-18T14:49:08;4.87;;;3.40;;
2053;SDS011;1032;52.542;13.440;2022-07-18T14:51:35;7.63;;;4.00;;
2053;SDS011;1032;52.542;13.440;2022-07-18T14:54:02;6.07;;;3.80;;
2053;SDS011;1032;52.542;13.440;2022-07-18T14:56:29;6.33;;;2.83;;
2053;SDS011;1032;52.542;13.440;2022-07-18T14:58:56;3.93;;;3.20;;
2053;SDS011;1032;52.542;13.440;2022-07-18T15:01:24;6.03;;;3.47;;
2053;SDS011;1032;52.542;13.440;2022-07-18T15:03:51;7.90;;;3.73;;
2053;SDS011;1032;52.542;13.440;2022-07-18T15:06:20;4.93;;;4.43;;
2053;SDS011;1032;52.542;13.440;2022-07-18T15:08:47;7.00;;;4.00;;
2053;SDS011;1032;52.542;13.440;2022-07-18T15:11:14;8.93;;;4.20;;
2053;SDS011;1032;52.542;13.440;2022-07-18T15:13:43;4.40;;;3.60;;
2053;SDS011;1032;52.542;13.440;2022-07-18T15:16:10;4.17;;;3.77;;
2053;SDS011;1032;52.542;13.440;2022-07-18T15:18:38;5.50;;;3.63;;
2053;SDS011;1032;52.542;13.440;2022-07-18T15:21:05;3.80;;;3.20;;
2053;SDS011;1032;52.542;13.440;2022-07-18T15:23:32;5.43;;;4.23;;
2053;SDS011;1032;52.542;13.440;2022-07-18T15:25:59;5.60;;;4.57;;
2053;SDS011;1032;52.542;13.440;2022-07-18T15:28:26;4.60;;;3.80;;
2053;SDS011;1032;52.542;13.440;2022-07-18T15:30:53;4.40;;;4.00;;